sensor_id;sensor_type;location;lat;lon;timestamp;pressure;altitude;pressure_sealevel;temperature;humidity
37832;BME280;23671;38.090;-122.570;2023-04-08T00:00:49;101554.47;;;19.44;57.14
37832;BME280;23671;38.090;-122.570;2023-04-08T00:03:16;101554.47;;;19.44;57.55
37832;BME280;23671;38.090;-122.570;2023-04-08T00:05:43;101557.16;;;19.44;57.38
37832;BME280;23671;38.090;-122.570;2023-04-08T00:08:10;101558.84;;;19.45;57.49
37832;BME280;23671;38.090;-122.570;2023-04-08T00:10:50;101567.84;;;19.44;57.55
37832;BME280;23671;38.090;-122.570;2023-04-08T00:13:17;101569.41;;;19.46;57.41
37832;BME280;23671;38.090;-122.570;2023-04-08T00:15:45;101565.19;;;19.44;57.38
37832;BME280;23671;38.090;-122.570;2023-04-08T00:18:13;101573.22;;;19.44;57.33
37832;BME280;23671;38.090;-122.570;2023-04-08T00:20:43;101569.72;;;19.43;57.22
37832;BME280;23671;38.090;-122.570;2023-04-08T00:23:11;101574.06;;;19.44;57.02
37832;BME280;23671;38.090;-122.570;2023-04-08T00:25:38;101572.25;;;19.45;57.14
37832;BME280;23671;38.090;-122.570;2023-04-08T00:28:05;101574.91;;;19.45;57.24
37832;BME280;23671;38.090;-122.570;2023-04-08T00:30:32;101575.75;;;19.45;57.01
37832;BME280;23671;38.090;-122.570;2023-04-08T00:32:59;101577.59;;;19.45;57.03
37832;BME280;23671;38.090;-122.570;2023-04-08T00:35:27;101574.91;;;19.45;56.94
37832;BME280;23671;38.090;-122.570;2023-04-08T00:37:54;101574.41;;;19.41;56.93
37832;BME280;23671;38.090;-122.570;2023-04-08T00:40:21;101578.75;;;19.42;56.74
37832;BME280;23671;38.090;-122.570;2023-04-08T00:42:48;101583.41;;;19.40;56.86
37832;BME280;23671;38.090;-122.570;2023-04-08T00:45:15;101585.28;;;19.40;56.83
37832;BME280;23671;38.090;-122.570;2023-04-08T00:47:42;101599.47;;;19.40;56.59
37832;BME280;23671;38.090;-122.570;2023-04-08T00:50:10;101600.66;;;19.38;56.33
37832;BME280;23671;38.090;-122.570;2023-04-08T00:52:37;101610.69;;;19.36;56.31
37832;BME280;23671;38.090;-122.570;2023-04-08T00:55:04;101609.69;;;19.37;56.51
37832;BME280;23671;38.090;-122.570;2023-04-08T00:57:32;101608.59;;;19.30;56.63
37832;BME280;23671;38.090;-122.570;2023-04-08T00:59:59;101612.13;;;19.30;56.77
37832;BME280;23671;38.090;-122.570;2023-04-08T01:02:39;101610.25;;;19.31;56.73
37832;BME280;23671;38.090;-122.570;2023-04-08T01:07:50;101617.09;;;18.72;51.56
37832;BME280;23671;38.090;-122.570;2023-04-08T01:10:25;101623.13;;;18.30;51.18
37832;BME280;23671;38.090;-122.570;2023-04-08T01:13:04;101619.75;;;18.00;52.23
37832;BME280;23671;38.090;-122.570;2023-04-08T01:15:35;101615.44;;;17.80;53.14
37832;BME280;23671;38.090;-122.570;2023-04-08T01:18:07;101609.88;;;17.74;53.09
37832;BME280;23671;38.090;-122.570;2023-04-08T01:20:35;101606.94;;;17.58;51.85
37832;BME280;23671;38.090;-122.570;2023-04-08T01:23:08;101613.97;;;17.59;52.70
37832;BME280;23671;38.090;-122.570;2023-04-08T01:25:43;101616.38;;;17.43;52.97
37832;BME280;23671;38.090;-122.570;2023-04-08T01:28:15;101618.91;;;17.35;52.91
37832;BME280;23671;38.090;-122.570;2023-04-08T01:30:44;101618.38;;;17.31;53.10
37832;BME280;23671;38.090;-122.570;2023-04-08T01:33:14;101619.63;;;17.27;53.81
37832;BME280;23671;38.090;-122.570;2023-04-08T01:35:43;101620.47;;;17.27;54.33
37832;BME280;23671;38.090;-122.570;2023-04-08T01:38:14;101623.44;;;17.15;54.20
37832;BME280;23671;38.090;-122.570;2023-04-08T01:40:43;101621.75;;;17.14;53.98
37832;BME280;23671;38.090;-122.570;2023-04-08T01:43:13;101632.00;;;17.09;54.70
37832;BME280;23671;38.090;-122.570;2023-04-08T01:45:44;101636.50;;;17.18;54.43
37832;BME280;23671;38.090;-122.570;2023-04-08T01:48:12;101637.91;;;17.32;53.87
37832;BME280;23671;38.090;-122.570;2023-04-08T01:50:44;101636.75;;;17.44;53.86
37832;BME280;23671;38.090;-122.570;2023-04-08T01:53:11;101645.31;;;17.57;53.45
37832;BME280;23671;38.090;-122.570;2023-04-08T01:55:41;101645.59;;;17.63;53.38
37832;BME280;23671;38.090;-122.570;2023-04-08T01:58:12;101659.06;;;17.71;53.39
37832;BME280;23671;38.090;-122.570;2023-04-08T02:00:44;101655.41;;;17.72;53.37
37832;BME280;23671;38.090;-122.570;2023-04-08T02:03:12;101655.97;;;17.76;53.47
37832;BME280;23671;38.090;-122.570;2023-04-08T02:05:40;101657.81;;;17.75;53.41
37832;BME280;23671;38.090;-122.570;2023-04-08T02:08:07;101660.31;;;17.77;53.47
37832;BME280;23671;38.090;-122.570;2023-04-08T02:10:34;101652.47;;;17.75;53.54
37832;BME280;23671;38.090;-122.570;2023-04-08T02:13:02;101656.25;;;17.73;53.77
37832;BME280;23671;38.090;-122.570;2023-04-08T02:15:33;101657.97;;;17.74;53.84
37832;BME280;23671;38.090;-122.570;2023-04-08T02:18:14;101668.91;;;17.71;53.38
37832;BME280;23671;38.090;-122.570;2023-04-08T02:20:52;101660.03;;;17.70;53.61
37832;BME280;23671;38.090;-122.570;2023-04-08T02:23:26;101662.16;;;17.67;53.72
37832;BME280;23671;38.090;-122.570;2023-04-08T02:25:55;101652.47;;;17.66;53.51
37832;BME280;23671;38.090;-122.570;2023-04-08T02:28:23;101658.78;;;17.65;53.73
37832;BME280;23671;38.090;-122.570;2023-04-08T02:30:52;101656.69;;;17.68;53.86
37832;BME280;23671;38.090;-122.570;2023-04-08T02:33:21;101665.13;;;17.64;53.27
37832;BME280;23671;38.090;-122.570;2023-04-08T02:35:50;101667.53;;;17.57;53.09
37832;BME280;23671;38.090;-122.570;2023-04-08T02:38:20;101672.03;;;17.57;53.08
37832;BME280;23671;38.090;-122.570;2023-04-08T02:40:49;101667.97;;;17.53;52.99
37832;BME280;23671;38.090;-122.570;2023-04-08T02:43:17;101668.69;;;17.55;53.15
37832;BME280;23671;38.090;-122.570;2023-04-08T02:45:45;101668.41;;;17.48;53.12
37832;BME280;23671;38.090;-122.570;2023-04-08T02:48:12;101660.78;;;17.53;53.18
37832;BME280;23671;38.090;-122.570;2023-04-08T02:50:39;101670.47;;;17.45;52.99
37832;BME280;23671;38.090;-122.570;2023-04-08T02:53:07;101669.78;;;17.43;52.82
37832;BME280;23671;38.090;-122.570;2023-04-08T02:55:34;101673.41;;;17.42;52.97
37832;BME280;23671;38.090;-122.570;2023-04-08T02:58:01;101665.97;;;17.36;53.01
37832;BME280;23671;38.090;-122.570;2023-04-08T03:00:29;101678.34;;;17.37;52.77
37832;BME280;23671;38.090;-122.570;2023-04-08T03:02:56;101681.28;;;17.34;52.87
37832;BME280;23671;38.090;-122.570;2023-04-08T03:05:24;101677.94;;;17.32;52.66
37832;BME280;23671;38.090;-122.570;2023-04-08T03:07:51;101686.91;;;17.31;52.67
37832;BME280;23671;38.090;-122.570;2023-04-08T03:10:18;101679.31;;;17.26;52.46
37832;BME280;23671;38.090;-122.570;2023-04-08T03:12:45;101676.53;;;17.27;51.60
37832;BME280;23671;38.090;-122.570;2023-04-08T03:15:12;101689.44;;;17.22;52.50
37832;BME280;23671;38.090;-122.570;2023-04-08T03:17:39;101691.16;;;17.23;52.36
37832;BME280;23671;38.090;-122.570;2023-04-08T03:20:07;101699.72;;;17.17;52.53
37832;BME280;23671;38.090;-122.570;2023-04-08T03:22:34;101710.53;;;17.16;52.54
37832;BME280;23671;38.090;-122.570;2023-04-08T03:25:02;101698.00;;;17.16;51.85
37832;BME280;23671;38.090;-122.570;2023-04-08T03:27:29;101699.16;;;17.14;51.02
37832;BME280;23671;38.090;-122.570;2023-04-08T03:29:56;101706.56;;;17.10;52.15
37832;BME280;23671;38.090;-122.570;2023-04-08T03:32:24;101709.13;;;17.12;50.74
37832;BME280;23671;38.090;-122.570;2023-04-08T03:34:51;101719.22;;;17.08;51.64
37832;BME280;23671;38.090;-122.570;2023-04-08T03:37:19;101727.34;;;17.07;51.26
37832;BME280;23671;38.090;-122.570;2023-04-08T03:39:46;101725.69;;;17.06;50.21
37832;BME280;23671;38.090;-122.570;2023-04-08T03:42:13;101725.84;;;17.04;50.33
37832;BME280;23671;38.090;-122.570;2023-04-08T03:44:40;101727.66;;;17.04;49.85
37832;BME280;23671;38.090;-122.570;2023-04-08T03:47:07;101737.88;;;16.99;49.68
37832;BME280;23671;38.090;-122.570;2023-04-08T03:49:34;101740.69;;;16.97;49.85
37832;BME280;23671;38.090;-122.570;2023-04-08T03:52:01;101746.47;;;16.93;50.00
37832;BME280;23671;38.090;-122.570;2023-04-08T03:54:28;101754.56;;;16.91;49.74
37832;BME280;23671;38.090;-122.570;2023-04-08T03:56:55;101760.19;;;16.88;49.82
37832;BME280;23671;38.090;-122.570;2023-04-08T03:59:22;101765.78;;;16.85;49.91
37832;BME280;23671;38.090;-122.570;2023-04-08T04:01:50;101773.94;;;16.84;49.96
37832;BME280;23671;38.090;-122.570;2023-04-08T04:04:19;101766.34;;;16.79;49.71
37832;BME280;23671;38.090;-122.570;2023-04-08T04:06:46;101773.50;;;16.79;49.56
37832;BME280;23671;38.090;-122.570;2023-04-08T04:09:13;101782.03;;;16.73;49.83
37832;BME280;23671;38.090;-122.570;2023-04-08T04:11:40;101769.81;;;16.70;49.93
37832;BME280;23671;38.090;-122.570;2023-04-08T04:14:07;101778.09;;;16.67;50.03
37832;BME280;23671;38.090;-122.570;2023-04-08T04:16:34;101778.34;;;16.64;49.65
37832;BME280;23671;38.090;-122.570;2023-04-08T04:19:01;101782.28;;;16.60;49.51
37832;BME280;23671;38.090;-122.570;2023-04-08T04:21:28;101790.41;;;16.59;49.48
37832;BME280;23671;38.090;-122.570;2023-04-08T04:23:55;101794.44;;;16.53;49.23
37832;BME280;23671;38.090;-122.570;2023-04-08T04:26:22;101783.34;;;16.48;49.36
37832;BME280;23671;38.090;-122.570;2023-04-08T04:28:49;101796.78;;;16.47;50.00
37832;BME280;23671;38.090;-122.570;2023-04-08T04:31:23;101804.19;;;16.43;49.86
37832;BME280;23671;38.090;-122.570;2023-04-08T04:33:54;101810.75;;;16.39;49.72
37832;BME280;23671;38.090;-122.570;2023-04-08T04:36:21;101814.41;;;16.38;49.59
37832;BME280;23671;38.090;-122.570;2023-04-08T04:38:49;101809.59;;;16.32;49.58
37832;BME280;23671;38.090;-122.570;2023-04-08T04:41:16;101804.25;;;16.32;49.55
37832;BME280;23671;38.090;-122.570;2023-04-08T04:43:43;101791.22;;;16.29;49.94
37832;BME280;23671;38.090;-122.570;2023-04-08T04:46:11;101798.63;;;16.25;50.21
37832;BME280;23671;38.090;-122.570;2023-04-08T04:48:38;101788.22;;;16.22;49.59
37832;BME280;23671;38.090;-122.570;2023-04-08T04:51:05;101792.97;;;16.19;49.94
37832;BME280;23671;38.090;-122.570;2023-04-08T04:53:32;101787.06;;;16.15;49.57
37832;BME280;23671;38.090;-122.570;2023-04-08T04:56:00;101791.81;;;16.12;49.65
37832;BME280;23671;38.090;-122.570;2023-04-08T04:58:27;101791.09;;;16.10;49.71
37832;BME280;23671;38.090;-122.570;2023-04-08T05:00:54;101787.25;;;16.03;49.72
37832;BME280;23671;38.090;-122.570;2023-04-08T05:03:22;101789.91;;;16.03;50.16
37832;BME280;23671;38.090;-122.570;2023-04-08T05:05:52;101789.19;;;16.01;49.93
37832;BME280;23671;38.090;-122.570;2023-04-08T05:08:20;101788.91;;;15.94;50.30
37832;BME280;23671;38.090;-122.570;2023-04-08T05:10:47;101789.28;;;15.90;50.24
37832;BME280;23671;38.090;-122.570;2023-04-08T05:13:18;101802.16;;;15.85;50.40
37832;BME280;23671;38.090;-122.570;2023-04-08T05:15:45;101795.63;;;15.78;50.12
37832;BME280;23671;38.090;-122.570;2023-04-08T05:18:12;101806.69;;;15.73;50.52
37832;BME280;23671;38.090;-122.570;2023-04-08T05:20:39;101799.06;;;15.69;50.57
37832;BME280;23671;38.090;-122.570;2023-04-08T05:23:06;101790.63;;;15.64;50.57
37832;BME280;23671;38.090;-122.570;2023-04-08T05:25:34;101790.78;;;15.51;50.85
37832;BME280;23671;38.090;-122.570;2023-04-08T05:28:01;101799.03;;;15.48;50.72
37832;BME280;23671;38.090;-122.570;2023-04-08T05:30:28;101810.38;;;15.39;50.93
37832;BME280;23671;38.090;-122.570;2023-04-08T05:32:55;101805.69;;;15.31;51.22
37832;BME280;23671;38.090;-122.570;2023-04-08T05:35:22;101795.53;;;15.25;51.35
37832;BME280;23671;38.090;-122.570;2023-04-08T05:37:49;101791.56;;;15.20;51.63
37832;BME280;23671;38.090;-122.570;2023-04-08T05:40:16;101790.00;;;15.17;51.33
37832;BME280;23671;38.090;-122.570;2023-04-08T05:42:43;101793.16;;;15.11;51.57
37832;BME280;23671;38.090;-122.570;2023-04-08T05:45:10;101795.09;;;15.09;51.83
37832;BME280;23671;38.090;-122.570;2023-04-08T05:47:37;101789.28;;;15.04;51.84
37832;BME280;23671;38.090;-122.570;2023-04-08T05:50:05;101788.56;;;15.02;51.72
37832;BME280;23671;38.090;-122.570;2023-04-08T05:52:32;101786.44;;;14.96;51.93
37832;BME280;23671;38.090;-122.570;2023-04-08T05:54:59;101795.84;;;14.89;51.93
37832;BME280;23671;38.090;-122.570;2023-04-08T05:57:26;101794.91;;;14.90;52.14
37832;BME280;23671;38.090;-122.570;2023-04-08T05:59:53;101795.13;;;14.87;52.18
37832;BME280;23671;38.090;-122.570;2023-04-08T06:02:20;101784.50;;;14.87;52.23
37832;BME280;23671;38.090;-122.570;2023-04-08T06:04:47;101797.19;;;14.84;52.10
37832;BME280;23671;38.090;-122.570;2023-04-08T06:07:14;101781.50;;;14.81;52.17
37832;BME280;23671;38.090;-122.570;2023-04-08T06:09:41;101776.28;;;14.79;52.03
37832;BME280;23671;38.090;-122.570;2023-04-08T06:12:08;101776.78;;;14.73;52.17
37832;BME280;23671;38.090;-122.570;2023-04-08T06:14:35;101774.34;;;14.70;52.30
37832;BME280;23671;38.090;-122.570;2023-04-08T06:17:02;101770.84;;;14.70;52.30
37832;BME280;23671;38.090;-122.570;2023-04-08T06:19:30;101771.09;;;14.67;52.50
37832;BME280;23671;38.090;-122.570;2023-04-08T06:21:57;101769.66;;;14.63;52.32
37832;BME280;23671;38.090;-122.570;2023-04-08T06:24:27;101769.66;;;14.63;52.42
37832;BME280;23671;38.090;-122.570;2023-04-08T06:26:55;101770.00;;;14.58;52.21
37832;BME280;23671;38.090;-122.570;2023-04-08T06:29:23;101773.03;;;14.53;52.27
37832;BME280;23671;38.090;-122.570;2023-04-08T06:31:50;101772.31;;;14.51;52.50
37832;BME280;23671;38.090;-122.570;2023-04-08T06:34:17;101771.72;;;14.48;52.54
37832;BME280;23671;38.090;-122.570;2023-04-08T06:36:44;101781.38;;;14.49;52.40
37832;BME280;23671;38.090;-122.570;2023-04-08T06:39:11;101777.84;;;14.48;52.73
37832;BME280;23671;38.090;-122.570;2023-04-08T06:41:38;101782.09;;;14.40;52.59
37832;BME280;23671;38.090;-122.570;2023-04-08T06:44:05;101773.53;;;14.36;53.00
37832;BME280;23671;38.090;-122.570;2023-04-08T06:46:32;101768.31;;;14.35;52.84
37832;BME280;23671;38.090;-122.570;2023-04-08T06:48:59;101778.47;;;14.30;52.76
37832;BME280;23671;38.090;-122.570;2023-04-08T06:51:26;101762.75;;;14.27;52.66
37832;BME280;23671;38.090;-122.570;2023-04-08T06:53:53;101776.75;;;14.29;52.94
37832;BME280;23671;38.090;-122.570;2023-04-08T06:56:20;101771.06;;;14.22;53.11
37832;BME280;23671;38.090;-122.570;2023-04-08T06:58:48;101780.59;;;14.25;53.08
37832;BME280;23671;38.090;-122.570;2023-04-08T07:01:15;101778.16;;;14.22;52.46
37832;BME280;23671;38.090;-122.570;2023-04-08T07:03:42;101782.53;;;14.23;52.87
37832;BME280;23671;38.090;-122.570;2023-04-08T07:06:09;101779.84;;;14.12;52.69
37832;BME280;23671;38.090;-122.570;2023-04-08T07:08:37;101779.63;;;14.15;52.56
37832;BME280;23671;38.090;-122.570;2023-04-08T07:11:04;101787.06;;;14.10;52.89
37832;BME280;23671;38.090;-122.570;2023-04-08T07:13:32;101785.88;;;14.03;53.43
37832;BME280;23671;38.090;-122.570;2023-04-08T07:15:59;101795.53;;;14.04;53.11
37832;BME280;23671;38.090;-122.570;2023-04-08T07:18:26;101796.75;;;14.00;53.13
37832;BME280;23671;38.090;-122.570;2023-04-08T07:20:54;101792.72;;;13.94;53.09
37832;BME280;23671;38.090;-122.570;2023-04-08T07:23:21;101790.91;;;13.95;53.24
37832;BME280;23671;38.090;-122.570;2023-04-08T07:25:48;101793.28;;;13.87;53.36
37832;BME280;23671;38.090;-122.570;2023-04-08T07:28:15;101793.28;;;13.87;53.15
37832;BME280;23671;38.090;-122.570;2023-04-08T07:30:42;101803.31;;;13.83;53.62
37832;BME280;23671;38.090;-122.570;2023-04-08T07:33:09;101807.06;;;13.81;53.24
37832;BME280;23671;38.090;-122.570;2023-04-08T07:35:36;101792.69;;;13.83;53.48
37832;BME280;23671;38.090;-122.570;2023-04-08T07:38:03;101786.75;;;13.80;53.34
37832;BME280;23671;38.090;-122.570;2023-04-08T07:40:34;101795.31;;;13.72;53.64
37832;BME280;23671;38.090;-122.570;2023-04-08T07:43:01;101784.91;;;13.69;53.31
37832;BME280;23671;38.090;-122.570;2023-04-08T07:45:28;101783.34;;;13.66;53.36
37832;BME280;23671;38.090;-122.570;2023-04-08T07:47:55;101792.25;;;13.65;53.60
37832;BME280;23671;38.090;-122.570;2023-04-08T07:50:22;101791.03;;;13.58;53.98
37832;BME280;23671;38.090;-122.570;2023-04-08T07:52:49;101797.19;;;13.59;53.56
37832;BME280;23671;38.090;-122.570;2023-04-08T07:55:18;101799.72;;;13.60;53.34
37832;BME280;23671;38.090;-122.570;2023-04-08T07:57:45;101807.19;;;13.55;53.89
37832;BME280;23671;38.090;-122.570;2023-04-08T08:00:13;101809.84;;;13.55;53.31
37832;BME280;23671;38.090;-122.570;2023-04-08T08:02:46;101813.56;;;13.53;53.69
37832;BME280;23671;38.090;-122.570;2023-04-08T08:05:13;101807.41;;;13.52;53.84
37832;BME280;23671;38.090;-122.570;2023-04-08T08:07:40;101813.91;;;13.48;53.92
37832;BME280;23671;38.090;-122.570;2023-04-08T08:10:08;101813.03;;;13.48;54.16
37832;BME280;23671;38.090;-122.570;2023-04-08T08:12:36;101812.53;;;13.43;53.74
37832;BME280;23671;38.090;-122.570;2023-04-08T08:15:03;101820.94;;;13.37;53.87
37832;BME280;23671;38.090;-122.570;2023-04-08T08:17:31;101811.06;;;13.39;54.39
37832;BME280;23671;38.090;-122.570;2023-04-08T08:19:59;101813.84;;;13.37;53.73
37832;BME280;23671;38.090;-122.570;2023-04-08T08:22:27;101818.75;;;13.31;53.64
37832;BME280;23671;38.090;-122.570;2023-04-08T08:24:57;101830.81;;;13.35;53.64
37832;BME280;23671;38.090;-122.570;2023-04-08T08:27:25;101828.28;;;13.33;54.23
37832;BME280;23671;38.090;-122.570;2023-04-08T08:29:52;101832.13;;;13.29;54.11
37832;BME280;23671;38.090;-122.570;2023-04-08T08:32:19;101819.91;;;13.27;54.32
37832;BME280;23671;38.090;-122.570;2023-04-08T08:34:46;101821.09;;;13.23;54.30
37832;BME280;23671;38.090;-122.570;2023-04-08T08:37:13;101825.47;;;13.24;54.12
37832;BME280;23671;38.090;-122.570;2023-04-08T08:39:40;101822.69;;;13.25;54.27
37832;BME280;23671;38.090;-122.570;2023-04-08T08:42:17;101825.69;;;13.21;54.54
37832;BME280;23671;38.090;-122.570;2023-04-08T08:44:44;101830.47;;;13.16;54.69
37832;BME280;23671;38.090;-122.570;2023-04-08T08:47:11;101829.59;;;13.15;54.02
37832;BME280;23671;38.090;-122.570;2023-04-08T08:49:38;101827.31;;;13.11;54.00
37832;BME280;23671;38.090;-122.570;2023-04-08T08:52:06;101831.75;;;13.10;54.38
37832;BME280;23671;38.090;-122.570;2023-04-08T08:54:33;101824.53;;;13.12;54.25
37832;BME280;23671;38.090;-122.570;2023-04-08T08:57:00;101817.75;;;13.08;54.16
37832;BME280;23671;38.090;-122.570;2023-04-08T08:59:27;101813.19;;;13.10;54.50
37832;BME280;23671;38.090;-122.570;2023-04-08T09:01:54;101813.50;;;13.06;54.18
37832;BME280;23671;38.090;-122.570;2023-04-08T09:04:22;101812.69;;;13.05;54.60
37832;BME280;23671;38.090;-122.570;2023-04-08T09:07:03;101815.50;;;13.02;54.47
37832;BME280;23671;38.090;-122.570;2023-04-08T09:09:48;101833.16;;;13.03;54.50
37832;BME280;23671;38.090;-122.570;2023-04-08T09:12:15;101835.13;;;13.00;54.19
37832;BME280;23671;38.090;-122.570;2023-04-08T09:14:42;101835.38;;;12.97;54.64
37832;BME280;23671;38.090;-122.570;2023-04-08T09:17:09;101839.59;;;12.99;54.02
37832;BME280;23671;38.090;-122.570;2023-04-08T09:19:36;101830.06;;;12.97;54.91
37832;BME280;23671;38.090;-122.570;2023-04-08T09:22:09;101828.47;;;12.94;54.43
37832;BME280;23671;38.090;-122.570;2023-04-08T09:24:37;101827.53;;;12.95;54.14
37832;BME280;23671;38.090;-122.570;2023-04-08T09:27:05;101817.97;;;12.93;54.27
37832;BME280;23671;38.090;-122.570;2023-04-08T09:29:32;101814.69;;;12.89;54.89
37832;BME280;23671;38.090;-122.570;2023-04-08T09:32:01;101807.69;;;12.88;54.70
37832;BME280;23671;38.090;-122.570;2023-04-08T09:34:28;101801.69;;;12.86;54.37
37832;BME280;23671;38.090;-122.570;2023-04-08T09:36:57;101807.19;;;12.83;54.35
37832;BME280;23671;38.090;-122.570;2023-04-08T09:39:24;101811.63;;;12.82;54.53
37832;BME280;23671;38.090;-122.570;2023-04-08T09:41:52;101809.09;;;12.81;54.68
37832;BME280;23671;38.090;-122.570;2023-04-08T09:44:20;101804.66;;;12.82;54.83
37832;BME280;23671;38.090;-122.570;2023-04-08T09:47:18;101802.84;;;12.82;54.62
37832;BME280;23671;38.090;-122.570;2023-04-08T09:49:54;101799.66;;;12.77;54.99
37832;BME280;23671;38.090;-122.570;2023-04-08T09:52:24;101800.41;;;12.79;54.49
37832;BME280;23671;38.090;-122.570;2023-04-08T09:55:07;101801.25;;;12.79;54.84
37832;BME280;23671;38.090;-122.570;2023-04-08T09:57:49;101798.00;;;12.76;54.55
37832;BME280;23671;38.090;-122.570;2023-04-08T10:00:17;101795.34;;;12.76;54.05
37832;BME280;23671;38.090;-122.570;2023-04-08T10:02:58;101795.53;;;12.73;54.54
37832;BME280;23671;38.090;-122.570;2023-04-08T10:05:27;101798.31;;;12.71;54.88
37832;BME280;23671;38.090;-122.570;2023-04-08T10:07:56;101793.00;;;12.71;54.18
37832;BME280;23671;38.090;-122.570;2023-04-08T10:10:24;101791.09;;;12.73;54.70
37832;BME280;23671;38.090;-122.570;2023-04-08T10:12:51;101782.41;;;12.71;54.29
37832;BME280;23671;38.090;-122.570;2023-04-08T10:15:32;101794.78;;;12.71;54.64
37832;BME280;23671;38.090;-122.570;2023-04-08T10:25:40;101793.31;;;12.67;54.88
37832;BME280;23671;38.090;-122.570;2023-04-08T10:30:54;101788.69;;;12.58;54.95
37832;BME280;23671;38.090;-122.570;2023-04-08T10:33:31;101788.56;;;12.59;54.80
37832;BME280;23671;38.090;-122.570;2023-04-08T10:38:31;101794.09;;;12.56;54.51
37832;BME280;23671;38.090;-122.570;2023-04-08T10:40:58;101794.94;;;12.57;54.95
37832;BME280;23671;38.090;-122.570;2023-04-08T10:43:26;101807.22;;;12.58;54.86
37832;BME280;23671;38.090;-122.570;2023-04-08T10:45:57;101807.44;;;12.55;54.52
37832;BME280;23671;38.090;-122.570;2023-04-08T10:48:24;101807.44;;;12.55;54.40
37832;BME280;23671;38.090;-122.570;2023-04-08T10:56:11;101808.50;;;12.52;55.07
37832;BME280;23671;38.090;-122.570;2023-04-08T10:58:50;101801.59;;;12.50;54.71
37832;BME280;23671;38.090;-122.570;2023-04-08T11:01:17;101801.53;;;12.51;54.41
37832;BME280;23671;38.090;-122.570;2023-04-08T11:03:45;101792.84;;;12.49;55.07
37832;BME280;23671;38.090;-122.570;2023-04-08T11:06:12;101791.00;;;12.50;54.60
37832;BME280;23671;38.090;-122.570;2023-04-08T11:08:39;101798.31;;;12.46;54.56
37832;BME280;23671;38.090;-122.570;2023-04-08T11:11:07;101790.38;;;12.46;54.93
37832;BME280;23671;38.090;-122.570;2023-04-08T11:13:41;101791.25;;;12.47;54.38
37832;BME280;23671;38.090;-122.570;2023-04-08T11:16:09;101771.22;;;12.43;54.56
37832;BME280;23671;38.090;-122.570;2023-04-08T11:18:37;101772.88;;;12.44;55.14
37832;BME280;23671;38.090;-122.570;2023-04-08T11:21:11;101763.38;;;12.41;54.53
37832;BME280;23671;38.090;-122.570;2023-04-08T11:23:38;101762.53;;;12.41;55.20
37832;BME280;23671;38.090;-122.570;2023-04-08T11:26:05;101761.78;;;12.39;55.08
37832;BME280;23671;38.090;-122.570;2023-04-08T11:28:33;101768.78;;;12.40;54.36
37832;BME280;23671;38.090;-122.570;2023-04-08T11:31:01;101758.91;;;12.42;54.27
37832;BME280;23671;38.090;-122.570;2023-04-08T11:33:33;101764.44;;;12.39;54.42
37832;BME280;23671;38.090;-122.570;2023-04-08T11:36:01;101763.81;;;12.35;54.71
37832;BME280;23671;38.090;-122.570;2023-04-08T11:38:31;101761.28;;;12.34;54.47
37832;BME280;23671;38.090;-122.570;2023-04-08T11:40:59;101757.75;;;12.33;54.51
37832;BME280;23671;38.090;-122.570;2023-04-08T11:43:26;101769.28;;;12.32;54.57
37832;BME280;23671;38.090;-122.570;2023-04-08T11:45:54;101778.09;;;12.33;54.50
37832;BME280;23671;38.090;-122.570;2023-04-08T11:48:21;101767.84;;;12.28;54.96
37832;BME280;23671;38.090;-122.570;2023-04-08T11:51:02;101784.56;;;12.29;54.53
37832;BME280;23671;38.090;-122.570;2023-04-08T11:53:30;101780.13;;;12.29;54.88
37832;BME280;23671;38.090;-122.570;2023-04-08T11:55:57;101791.69;;;12.28;54.78
37832;BME280;23671;38.090;-122.570;2023-04-08T11:58:24;101797.91;;;12.27;54.39
37832;BME280;23671;38.090;-122.570;2023-04-08T12:00:51;101815.69;;;12.25;54.58
37832;BME280;23671;38.090;-122.570;2023-04-08T12:03:18;101815.69;;;12.25;54.82
37832;BME280;23671;38.090;-122.570;2023-04-08T12:05:45;101823.75;;;12.24;54.89
37832;BME280;23671;38.090;-122.570;2023-04-08T12:08:12;101823.75;;;12.24;54.60
37832;BME280;23671;38.090;-122.570;2023-04-08T12:10:39;101824.06;;;12.19;55.10
37832;BME280;23671;38.090;-122.570;2023-04-08T12:13:06;101817.84;;;12.20;54.87
37832;BME280;23671;38.090;-122.570;2023-04-08T12:15:33;101815.19;;;12.20;54.91
37832;BME280;23671;38.090;-122.570;2023-04-08T12:18:00;101804.78;;;12.17;54.93
37832;BME280;23671;38.090;-122.570;2023-04-08T12:20:27;101793.44;;;12.15;55.27
37832;BME280;23671;38.090;-122.570;2023-04-08T12:22:54;101792.28;;;12.19;55.00
37832;BME280;23671;38.090;-122.570;2023-04-08T12:25:21;101773.63;;;12.21;55.13
37832;BME280;23671;38.090;-122.570;2023-04-08T12:27:48;101768.56;;;12.18;54.81
37832;BME280;23671;38.090;-122.570;2023-04-08T12:30:15;101762.41;;;12.17;55.00
37832;BME280;23671;38.090;-122.570;2023-04-08T12:32:42;101766.03;;;12.16;54.83
37832;BME280;23671;38.090;-122.570;2023-04-08T12:35:11;101758.22;;;12.15;54.87
37832;BME280;23671;38.090;-122.570;2023-04-08T12:37:38;101758.22;;;12.15;55.15
37832;BME280;23671;38.090;-122.570;2023-04-08T12:40:05;101751.31;;;12.12;55.37
37832;BME280;23671;38.090;-122.570;2023-04-08T12:42:33;101775.03;;;12.14;54.93
37832;BME280;23671;38.090;-122.570;2023-04-08T12:45:00;101767.19;;;12.12;54.96
37832;BME280;23671;38.090;-122.570;2023-04-08T12:47:27;101774.41;;;12.10;55.21